createdAt,value
2022-11-19T00:00:46.023Z,4.97
2022-11-19T00:03:15.559Z,4.35
2022-11-19T00:05:47.443Z,5.75
2022-11-19T00:08:18.189Z,6.85
2022-11-19T00:10:48.882Z,4.80
2022-11-19T00:13:17.102Z,4.28
2022-11-19T00:15:48.529Z,4.13
2022-11-19T00:20:47.701Z,4.40
2022-11-19T00:23:16.939Z,5.15
2022-11-19T00:25:47.276Z,5.30
2022-11-19T00:28:16.760Z,6.28
2022-11-19T00:30:48.836Z,6.13
2022-11-19T00:33:18.217Z,5.70
2022-11-19T00:35:47.900Z,5.38
2022-11-19T00:38:17.177Z,4.15
2022-11-19T00:40:46.909Z,4.47
2022-11-19T00:43:33.352Z,6.03
2022-11-19T00:46:04.508Z,5.75
2022-11-19T00:48:33.915Z,6.05
2022-11-19T00:51:06.442Z,5.83
2022-11-19T00:53:36.091Z,4.03
2022-11-19T00:56:08.352Z,4.28
2022-11-19T00:58:38.049Z,4.53
2022-11-19T01:01:10.191Z,3.50
2022-11-19T01:03:40.115Z,3.72
2022-11-19T01:06:14.191Z,4.35
2022-11-19T01:08:46.025Z,3.65
2022-11-19T01:11:18.016Z,4.53
2022-11-19T01:13:48.384Z,4.40
2022-11-19T01:16:22.015Z,4.22
2022-11-19T01:18:52.076Z,4.13
2022-11-19T01:21:23.879Z,4.55
2022-11-19T01:23:53.403Z,3.70
2022-11-19T01:26:24.089Z,3.70
2022-11-19T01:28:53.411Z,2.67
2022-11-19T01:31:27.372Z,2.38
2022-11-19T01:33:57.184Z,2.72
2022-11-19T01:36:28.188Z,3.23
2022-11-19T01:38:58.299Z,2.25
2022-11-19T01:41:30.694Z,2.50
2022-11-19T01:44:02.320Z,2.08
2022-11-19T01:46:35.287Z,2.60
2022-11-19T01:49:08.441Z,2.92
2022-11-19T01:51:40.663Z,3.08
2022-11-19T01:54:17.150Z,3.40
2022-11-19T01:56:47.510Z,2.40
2022-11-19T01:59:19.623Z,2.83
2022-11-19T02:01:51.519Z,2.40
2022-11-19T02:04:22.480Z,2.30
2022-11-19T02:06:54.233Z,1.85
2022-11-19T02:09:29.289Z,2.47
2022-11-19T02:12:16.707Z,2.78
2022-11-19T02:15:13.123Z,2.60
2022-11-19T02:18:20.949Z,2.75
2022-11-19T02:21:06.095Z,2.97
2022-11-19T02:23:57.446Z,3.15
2022-11-19T02:27:09.012Z,3.30
2022-11-19T02:30:03.908Z,3.03
2022-11-19T02:32:36.448Z,3.58
2022-11-19T02:35:24.183Z,3.72
2022-11-19T02:38:01.599Z,4.95
2022-11-19T02:40:37.955Z,4.68
2022-11-19T02:43:18.354Z,4.07
2022-11-19T02:45:54.881Z,4.70
2022-11-19T02:48:27.332Z,5.40
2022-11-19T02:51:01.547Z,5.10
2022-11-19T02:53:31.736Z,7.15
2022-11-19T02:56:13.363Z,8.68
2022-11-19T02:59:05.995Z,10.60
2022-11-19T03:01:57.529Z,11.82
2022-11-19T03:04:34.945Z,10.95
2022-11-19T03:07:11.529Z,10.65
2022-11-19T03:09:44.386Z,10.57
2022-11-19T03:12:23.536Z,10.82
2022-11-19T03:15:14.499Z,13.63
2022-11-19T03:18:02.662Z,12.75
2022-11-19T03:20:41.726Z,12.90
2022-11-19T03:23:18.270Z,14.00
2022-11-19T03:26:01.280Z,12.73
2022-11-19T03:28:37.942Z,11.18
2022-11-19T03:31:08.087Z,10.27
2022-11-19T03:33:44.846Z,10.35
2022-11-19T03:36:20.150Z,8.95
2022-11-19T03:38:54.130Z,10.23
2022-11-19T03:41:27.860Z,9.13
2022-11-19T03:44:01.620Z,9.50
2022-11-19T03:46:33.013Z,8.70
2022-11-19T03:49:06.171Z,9.30
2022-11-19T03:51:41.633Z,9.70
2022-11-19T03:54:12.243Z,9.30
2022-11-19T03:56:43.214Z,9.45
2022-11-19T03:59:14.659Z,9.82
2022-11-19T04:01:48.652Z,10.27
2022-11-19T04:04:38.425Z,10.35
2022-11-19T04:07:10.044Z,10.18
2022-11-19T04:09:40.666Z,11.50
2022-11-19T04:12:16.176Z,11.88
2022-11-19T04:14:46.263Z,10.73
2022-11-19T04:17:15.934Z,10.05
2022-11-19T04:19:47.643Z,10.15
2022-11-19T04:22:17.063Z,10.18
2022-11-19T04:24:47.122Z,10.60
2022-11-19T04:27:16.596Z,10.93
2022-11-19T04:29:46.775Z,10.80
2022-11-19T04:32:16.202Z,13.65
2022-11-19T04:34:47.828Z,11.60
2022-11-19T04:37:17.369Z,12.50
2022-11-19T04:39:47.428Z,11.82
2022-11-19T04:42:16.656Z,12.98
2022-11-19T04:44:46.439Z,13.88
2022-11-19T04:47:15.672Z,12.70
2022-11-19T04:49:46.722Z,13.70
2022-11-19T04:52:15.984Z,13.27
2022-11-19T04:54:45.582Z,14.45
2022-11-19T04:57:15.076Z,12.70
2022-11-19T04:59:45.280Z,13.43
2022-11-19T05:02:14.520Z,14.00
2022-11-19T05:04:44.486Z,12.82
2022-11-19T05:07:15.554Z,12.77
2022-11-19T05:09:45.858Z,13.52
2022-11-19T05:12:15.203Z,12.57
2022-11-19T05:14:45.951Z,12.95
2022-11-19T05:17:15.555Z,13.15
2022-11-19T05:19:45.551Z,13.10
2022-11-19T05:22:16.251Z,11.68
2022-11-19T05:24:46.221Z,12.15
2022-11-19T05:27:15.704Z,11.02
2022-11-19T05:29:45.715Z,10.88
2022-11-19T05:32:15.309Z,11.27
2022-11-19T05:34:45.769Z,10.63
2022-11-19T05:37:16.964Z,11.43
2022-11-19T05:39:47.000Z,10.45
2022-11-19T05:42:16.257Z,11.07
2022-11-19T05:44:45.844Z,10.32
2022-11-19T05:47:16.540Z,12.27
2022-11-19T05:49:46.483Z,12.23
2022-11-19T05:52:17.463Z,11.10
2022-11-19T05:54:47.539Z,11.15
2022-11-19T05:57:16.779Z,12.30
2022-11-19T05:59:46.394Z,13.10
2022-11-19T06:02:15.651Z,12.90
2022-11-19T06:04:46.929Z,14.50
2022-11-19T06:07:17.742Z,15.38
2022-11-19T06:09:47.542Z,14.38
2022-11-19T06:12:16.765Z,15.30
2022-11-19T06:14:46.924Z,15.68
2022-11-19T06:17:16.151Z,16.88
2022-11-19T06:19:45.755Z,17.33
2022-11-19T06:22:15.195Z,18.85
2022-11-19T06:24:46.347Z,19.05
2022-11-19T06:27:15.863Z,19.08
2022-11-19T06:29:45.783Z,18.83
2022-11-19T06:32:15.082Z,21.42
2022-11-19T06:34:44.695Z,20.15
2022-11-19T06:37:14.272Z,19.60
2022-11-19T06:39:45.811Z,19.13
2022-11-19T06:42:32.479Z,20.00
2022-11-19T06:45:02.271Z,22.38
2022-11-19T06:47:32.696Z,20.55
2022-11-19T06:50:03.004Z,20.38
2022-11-19T06:52:32.455Z,20.33
2022-11-19T06:55:04.049Z,19.80
2022-11-19T06:57:33.324Z,19.70
2022-11-19T07:00:03.080Z,19.85
2022-11-19T07:02:32.670Z,17.98
2022-11-19T07:05:02.635Z,18.42
2022-11-19T07:07:32.023Z,20.77
2022-11-19T07:10:03.403Z,17.98
2022-11-19T07:15:04.589Z,19.15
2022-11-19T07:17:34.983Z,18.95
2022-11-19T07:20:05.587Z,18.17
2022-11-19T07:22:34.860Z,18.90
2022-11-19T07:25:07.352Z,17.92
2022-11-19T07:27:36.855Z,17.83
2022-11-19T07:30:08.524Z,16.73
2022-11-19T07:32:38.063Z,16.63
2022-11-19T07:35:09.524Z,17.48
2022-11-19T07:37:39.354Z,15.48
2022-11-19T07:40:14.713Z,15.52
2022-11-19T07:42:49.564Z,16.35
2022-11-19T07:45:20.585Z,15.80
2022-11-19T07:47:50.628Z,14.35
2022-11-19T07:50:21.103Z,14.45
2022-11-19T07:52:50.551Z,16.02
2022-11-19T07:55:21.996Z,15.40
2022-11-19T07:57:51.676Z,14.30
2022-11-19T08:00:21.855Z,15.13
2022-11-19T08:02:51.493Z,17.45
2022-11-19T08:05:21.695Z,16.13
2022-11-19T08:07:51.439Z,16.52
2022-11-19T08:10:25.567Z,15.60
2022-11-19T08:13:04.542Z,16.30
2022-11-19T08:15:35.971Z,17.00
2022-11-19T08:18:13.039Z,16.40
2022-11-19T08:20:44.537Z,16.10
2022-11-19T08:23:14.830Z,15.48
2022-11-19T08:28:15.989Z,14.75
2022-11-19T08:30:47.024Z,16.20
2022-11-19T08:33:16.821Z,16.70
2022-11-19T08:35:46.755Z,17.60
2022-11-19T08:38:16.200Z,16.45
2022-11-19T08:40:53.375Z,14.98
2022-11-19T08:43:21.584Z,16.67
2022-11-19T08:45:55.482Z,14.90
2022-11-19T08:48:24.951Z,14.20
2022-11-19T08:50:55.067Z,15.10
2022-11-19T08:53:24.481Z,15.48
2022-11-19T08:55:55.919Z,14.25
2022-11-19T08:58:25.259Z,15.55
2022-11-19T09:00:55.212Z,14.02
2022-11-19T09:03:24.640Z,15.43
2022-11-19T09:06:00.737Z,13.53
2022-11-19T09:08:30.311Z,15.80
2022-11-19T09:11:01.856Z,14.32
2022-11-19T09:13:31.206Z,15.45
2022-11-19T09:16:01.246Z,15.80
2022-11-19T09:18:30.889Z,14.10
2022-11-19T09:21:01.083Z,15.98
2022-11-19T09:23:30.407Z,14.65
2022-11-19T09:26:03.260Z,14.40
2022-11-19T09:28:33.046Z,14.82
2022-11-19T09:31:05.306Z,15.80
2022-11-19T09:33:36.755Z,14.98
2022-11-19T09:36:07.339Z,14.27
2022-11-19T09:38:36.613Z,14.82
2022-11-19T09:41:27.228Z,14.52
2022-11-19T09:44:06.584Z,14.55
2022-11-19T09:46:45.904Z,12.73
2022-11-19T09:49:20.591Z,14.02
2022-11-19T09:51:57.295Z,13.38
2022-11-19T09:54:27.491Z,13.18
2022-11-19T09:59:38.141Z,12.65
2022-11-19T10:02:18.939Z,13.55
2022-11-19T10:04:49.550Z,12.48
2022-11-19T10:07:30.223Z,13.73
2022-11-19T10:10:13.631Z,14.00
2022-11-19T10:13:12.274Z,13.38
2022-11-19T10:15:53.253Z,14.27
2022-11-19T10:18:30.061Z,13.95
2022-11-19T10:21:04.211Z,14.80
2022-11-19T10:23:46.073Z,13.27
2022-11-19T10:28:55.460Z,12.80
2022-11-19T10:31:32.525Z,16.65
2022-11-19T10:34:09.327Z,14.25
2022-11-19T10:36:43.940Z,14.30
2022-11-19T10:39:22.106Z,13.25
2022-11-19T10:41:56.907Z,14.30
2022-11-19T10:44:41.789Z,14.43
2022-11-19T10:47:20.572Z,13.82
2022-11-19T10:49:55.302Z,15.20
2022-11-19T10:52:30.451Z,15.00
2022-11-19T10:55:05.747Z,13.65
2022-11-19T10:57:35.961Z,15.75
2022-11-19T11:00:08.387Z,16.13
2022-11-19T11:02:46.447Z,15.50
2022-11-19T11:05:18.477Z,16.65
2022-11-19T11:07:58.763Z,16.83
2022-11-19T11:10:38.069Z,16.55
2022-11-19T11:13:35.349Z,18.35
2022-11-19T11:16:12.870Z,17.75
2022-11-19T11:18:42.680Z,18.63
2022-11-19T11:21:21.931Z,19.05
2022-11-19T11:23:55.364Z,17.77
2022-11-19T11:26:26.731Z,15.98
2022-11-19T11:29:02.002Z,16.52
2022-11-19T11:31:40.529Z,16.92
2022-11-19T11:34:17.103Z,17.67
2022-11-19T11:36:47.404Z,18.13
2022-11-19T11:39:28.226Z,18.90
2022-11-19T11:44:39.810Z,16.42
2022-11-19T11:47:16.958Z,16.63
2022-11-19T11:49:49.762Z,14.88
2022-11-19T11:52:22.812Z,18.65
2022-11-19T11:55:03.099Z,19.65
2022-11-19T11:57:34.769Z,17.85
2022-11-19T12:00:06.426Z,17.40
2022-11-19T12:02:38.225Z,15.38
2022-11-19T12:08:05.682Z,17.45
2022-11-19T12:10:45.422Z,18.27
2022-11-19T12:13:55.638Z,18.63
2022-11-19T12:16:38.894Z,16.77
2022-11-19T12:19:24.625Z,16.75
2022-11-19T12:22:02.952Z,16.75
2022-11-19T12:24:50.047Z,17.85
2022-11-19T12:27:28.851Z,17.35
2022-11-19T12:30:06.384Z,16.85
2022-11-19T12:33:05.228Z,17.50
2022-11-19T12:35:53.280Z,19.40
2022-11-19T12:38:37.753Z,19.65
2022-11-19T12:41:24.719Z,21.23
2022-11-19T12:44:00.423Z,19.58
2022-11-19T12:46:45.990Z,19.55
2022-11-19T12:49:40.080Z,17.80
2022-11-19T12:52:25.625Z,19.17
2022-11-19T12:55:05.999Z,18.33
2022-11-19T13:00:19.269Z,18.02
2022-11-19T13:03:07.508Z,16.75
2022-11-19T13:05:43.072Z,20.08
2022-11-19T13:08:20.353Z,17.23
2022-11-19T13:10:54.819Z,17.92
2022-11-19T13:13:29.522Z,19.65
2022-11-19T13:16:01.623Z,19.85
2022-11-19T13:18:36.492Z,19.35
2022-11-19T13:21:10.031Z,19.90
2022-11-19T13:23:44.937Z,19.80
2022-11-19T13:26:18.262Z,19.02
2022-11-19T13:28:51.598Z,18.80
2022-11-19T13:31:33.602Z,20.00
2022-11-19T13:34:13.367Z,19.08
2022-11-19T13:36:47.067Z,20.40
2022-11-19T13:39:27.967Z,19.40
2022-11-19T13:42:15.737Z,20.63
2022-11-19T13:44:45.638Z,20.45
2022-11-19T13:47:21.993Z,19.30
2022-11-19T13:49:55.736Z,22.00
2022-11-19T13:52:31.676Z,20.25
2022-11-19T13:55:03.758Z,20.02
2022-11-19T13:57:36.672Z,21.63
2022-11-19T14:00:08.674Z,20.15
2022-11-19T14:03:21.869Z,21.42
2022-11-19T14:06:16.522Z,21.92
2022-11-19T14:09:08.238Z,18.70
2022-11-19T14:12:18.393Z,22.63
2022-11-19T14:15:27.813Z,19.98
2022-11-19T14:18:22.428Z,20.92
2022-11-19T14:21:12.253Z,21.05
2022-11-19T14:24:05.727Z,21.15
2022-11-19T14:27:17.485Z,22.02
2022-11-19T14:30:01.693Z,21.95
2022-11-19T14:32:37.321Z,23.52
2022-11-19T14:35:33.031Z,24.20
2022-11-19T14:38:30.129Z,22.17
2022-11-19T14:41:23.031Z,23.02
2022-11-19T14:44:11.948Z,24.73
2022-11-19T14:46:47.367Z,25.60
2022-11-19T14:49:38.259Z,25.35
2022-11-19T14:52:22.169Z,25.40
2022-11-19T14:54:56.780Z,23.85
2022-11-19T14:57:30.413Z,25.05
2022-11-19T15:00:04.198Z,26.20
2022-11-19T15:02:39.804Z,24.95
2022-11-19T15:05:19.765Z,23.85
2022-11-19T15:07:55.881Z,25.92
2022-11-19T15:10:48.848Z,24.58
2022-11-19T15:13:27.997Z,24.58
2022-11-19T15:16:04.435Z,24.08
2022-11-19T15:18:52.954Z,28.30
2022-11-19T15:21:55.906Z,28.55
2022-11-19T15:24:37.488Z,26.17
2022-11-19T15:27:18.961Z,27.25
2022-11-19T15:30:09.059Z,26.67
2022-11-19T15:33:03.980Z,29.05
2022-11-19T15:35:52.925Z,27.60
2022-11-19T15:38:32.194Z,28.70
2022-11-19T15:41:05.103Z,23.80
2022-11-19T15:43:39.333Z,24.27
2022-11-19T15:46:13.747Z,25.35
2022-11-19T15:48:58.567Z,24.52
2022-11-19T15:51:34.158Z,23.40
2022-11-19T15:54:08.580Z,22.80
2022-11-19T15:56:40.811Z,21.27
2022-11-19T15:59:13.771Z,21.10
2022-11-19T16:01:44.767Z,22.23
2022-11-19T16:04:18.881Z,23.33
2022-11-19T16:06:52.861Z,21.67
2022-11-19T16:09:26.211Z,23.58
2022-11-19T16:12:16.004Z,24.40
2022-11-19T16:15:09.245Z,24.95
2022-11-19T16:17:45.349Z,24.08
2022-11-19T16:20:22.277Z,24.88
2022-11-19T16:22:57.260Z,23.65
2022-11-19T16:25:36.690Z,21.67
2022-11-19T16:28:15.967Z,22.97
2022-11-19T16:30:47.670Z,24.05
2022-11-19T16:33:22.047Z,25.55
2022-11-19T16:35:53.905Z,24.15
2022-11-19T16:38:29.688Z,25.35
2022-11-19T16:41:16.623Z,25.88
2022-11-19T16:43:49.057Z,22.52
2022-11-19T16:46:25.962Z,25.40
2022-11-19T16:48:58.939Z,26.02
2022-11-19T16:51:41.847Z,25.75
2022-11-19T16:54:13.211Z,24.98
2022-11-19T16:56:45.817Z,25.67
2022-11-19T16:59:21.817Z,27.05
2022-11-19T17:01:56.430Z,25.67
2022-11-19T17:04:29.942Z,23.27
2022-11-19T17:07:01.723Z,24.73
2022-11-19T17:09:44.952Z,24.02
2022-11-19T17:12:29.008Z,26.60
2022-11-19T17:15:00.621Z,22.48
2022-11-19T17:17:42.267Z,22.42
2022-11-19T17:20:49.999Z,23.95
2022-11-19T17:23:22.414Z,25.98
2022-11-19T17:25:54.876Z,24.90
2022-11-19T17:28:30.190Z,24.50
2022-11-19T17:31:08.628Z,28.33
2022-11-19T17:33:38.466Z,24.20
2022-11-19T17:36:14.934Z,26.35
2022-11-19T17:38:46.022Z,28.55
2022-11-19T17:41:38.633Z,26.17
2022-11-19T17:44:28.675Z,27.08
2022-11-19T17:46:59.138Z,24.05
2022-11-19T17:49:28.415Z,24.40
2022-11-19T17:51:58.050Z,24.73
2022-11-19T17:54:29.707Z,27.00
2022-11-19T17:56:59.397Z,22.52
2022-11-19T17:59:28.770Z,24.17
2022-11-19T18:01:58.936Z,21.27
2022-11-19T18:04:28.305Z,23.77
2022-11-19T18:06:58.201Z,21.45
2022-11-19T18:09:34.616Z,23.73
2022-11-19T18:12:05.327Z,21.15
2022-11-19T18:14:34.976Z,24.50
2022-11-19T18:17:04.988Z,24.08
2022-11-19T18:19:34.211Z,21.30
2022-11-19T18:22:04.571Z,23.88
2022-11-19T18:24:38.836Z,22.40
2022-11-19T18:27:08.975Z,22.08
2022-11-19T18:29:38.465Z,21.23
2022-11-19T18:32:08.197Z,22.15
2022-11-19T18:34:38.014Z,21.08
2022-11-19T18:37:08.135Z,19.95
2022-11-19T18:39:39.137Z,20.27
2022-11-19T18:42:10.952Z,17.23
2022-11-19T18:44:39.538Z,17.55
2022-11-19T18:47:11.480Z,18.08
2022-11-19T18:49:41.245Z,18.02
2022-11-19T18:52:15.239Z,19.20
2022-11-19T18:54:46.632Z,17.52
2022-11-19T18:57:16.691Z,19.25
2022-11-19T18:59:46.100Z,17.13
2022-11-19T19:02:16.146Z,17.77
2022-11-19T19:04:50.706Z,19.60
2022-11-19T19:07:20.942Z,17.33
2022-11-19T19:09:51.821Z,17.73
2022-11-19T19:12:22.562Z,17.02
2022-11-19T19:14:53.193Z,18.85
2022-11-19T19:17:23.342Z,16.13
2022-11-19T19:19:52.591Z,16.13
2022-11-19T19:22:23.099Z,16.83
2022-11-19T19:24:58.119Z,16.40
2022-11-19T19:27:28.915Z,16.27
2022-11-19T19:29:58.433Z,15.05
2022-11-19T19:32:28.412Z,17.30
2022-11-19T19:34:57.665Z,16.27
2022-11-19T19:37:28.592Z,17.27
2022-11-19T19:39:59.379Z,17.52
2022-11-19T19:42:30.613Z,17.02
2022-11-19T19:45:00.752Z,16.48
2022-11-19T19:50:00.326Z,16.88
2022-11-19T19:52:30.232Z,17.48
2022-11-19T19:55:01.367Z,16.30
2022-11-19T19:57:31.696Z,15.23
2022-11-19T20:00:01.423Z,16.98
2022-11-19T20:02:31.400Z,16.45
2022-11-19T20:05:01.027Z,16.95
2022-11-19T20:07:31.128Z,19.40
2022-11-19T20:10:04.542Z,16.48
2022-11-19T20:12:48.308Z,18.48
2022-11-19T20:15:17.981Z,18.52
2022-11-19T20:17:48.019Z,18.98
2022-11-19T20:20:17.918Z,17.63
2022-11-19T20:22:47.630Z,18.33
2022-11-19T20:25:19.123Z,17.98
2022-11-19T20:27:49.209Z,17.45
2022-11-19T20:30:18.771Z,18.58
2022-11-19T20:32:49.014Z,18.60
2022-11-19T20:35:18.523Z,18.92
2022-11-19T20:37:49.015Z,18.17
2022-11-19T20:40:19.857Z,19.58
2022-11-19T20:43:06.868Z,16.50
2022-11-19T20:45:38.271Z,19.63
2022-11-19T20:48:08.539Z,18.90
2022-11-19T20:50:38.143Z,19.23
2022-11-19T20:53:07.950Z,18.15
2022-11-19T20:55:53.304Z,19.02
2022-11-19T21:01:04.196Z,17.75
2022-11-19T21:03:35.198Z,19.25
2022-11-19T21:06:07.669Z,20.33
2022-11-19T21:08:38.335Z,20.08
2022-11-19T21:11:11.376Z,20.13
2022-11-19T21:13:41.640Z,21.63
2022-11-19T21:16:14.227Z,22.08
2022-11-19T21:18:44.860Z,23.65
2022-11-19T21:21:15.443Z,19.80
2022-11-19T21:23:45.799Z,21.60
2022-11-19T21:26:18.520Z,20.37
2022-11-19T21:28:49.854Z,21.52
2022-11-19T21:31:21.955Z,20.08
2022-11-19T21:33:51.842Z,21.95
2022-11-19T21:36:21.169Z,22.83
2022-11-19T21:38:51.143Z,21.25
2022-11-19T21:41:22.166Z,23.42
2022-11-19T21:43:52.539Z,22.08
2022-11-19T21:46:21.936Z,21.90
2022-11-19T21:48:51.967Z,23.50
2022-11-19T21:51:24.635Z,22.35
2022-11-19T21:53:56.540Z,22.27
2022-11-19T21:56:29.112Z,22.10
2022-11-19T21:59:00.927Z,22.38
2022-11-19T22:01:30.400Z,20.52
2022-11-19T22:04:00.111Z,21.67
2022-11-19T22:06:29.683Z,21.35
2022-11-19T22:08:59.475Z,22.90
2022-11-19T22:11:30.659Z,21.80
2022-11-19T22:14:03.269Z,21.65
2022-11-19T22:16:35.538Z,20.58
2022-11-19T22:19:05.878Z,20.77
2022-11-19T22:21:35.749Z,20.15
2022-11-19T22:24:06.257Z,21.25
2022-11-19T22:26:37.468Z,20.08
2022-11-19T22:29:07.466Z,21.45
2022-11-19T22:31:36.906Z,20.98
2022-11-19T22:34:07.082Z,23.43
2022-11-19T22:36:36.595Z,17.73
2022-11-19T22:39:06.940Z,19.60
2022-11-19T22:41:37.863Z,20.42
2022-11-19T22:44:07.744Z,21.52
2022-11-19T22:46:37.051Z,21.05
2022-11-19T22:49:06.962Z,21.42
2022-11-19T22:51:36.340Z,22.15
2022-11-19T22:54:08.882Z,20.17
2022-11-19T22:56:39.878Z,19.63
2022-11-19T22:59:10.194Z,20.77
2022-11-19T23:01:39.500Z,20.73
2022-11-19T23:04:10.268Z,21.83
2022-11-19T23:06:40.474Z,20.17
2022-11-19T23:11:58.540Z,18.65
2022-11-19T23:14:30.420Z,21.83
2022-11-19T23:16:59.960Z,20.58
2022-11-19T23:19:30.329Z,19.37
2022-11-19T23:21:59.849Z,19.30
2022-11-19T23:24:29.562Z,19.83
2022-11-19T23:27:00.532Z,20.50
2022-11-19T23:29:30.947Z,21.75
2022-11-19T23:32:00.198Z,21.30
2022-11-19T23:34:29.827Z,19.52
2022-11-19T23:36:59.135Z,21.15
2022-11-19T23:39:29.314Z,20.45
2022-11-19T23:42:00.151Z,22.13
2022-11-19T23:44:29.997Z,21.00
2022-11-19T23:46:59.659Z,22.15
2022-11-19T23:49:29.655Z,20.83
2022-11-19T23:51:58.946Z,22.80
2022-11-19T23:54:28.634Z,24.42
2022-11-19T23:56:58.005Z,22.90
2022-11-19T23:59:30.155Z,23.47
